Aeroporto :
LOGIN :

Iscrizione | Disclaimer

   EN    FR    IT 

 










Sommario :    VFR   VFR Marginale   IFR   IFR Intensivo   IFR Molto Intensivo
Visibilità : 
Base nubi : 
>= 8 km
>= 3000ft
5 / 8 km
1000 / 3000 ft
1500m / 5 km
500 / 1000 ft
800 / 1500m
200 / 500 ft
< 800m
< 200 ft
Simboli :   Temporali  Nebbia  Neve Forte  Precipitazioni Forti  Vento > 20 kt
SIGMETs :   Varie  Temporali  Ghiacco  Turbolenza  Onda orograficha  Ceneri Vulcaniche






- Altitudine del aeroporto : 13 ft
- Codice IATA : CEQ


LFMD - Cannes Mandelieu

ULTIMO METAR :
  • 191730Z AUTO 36004KT 320V040 9999 -RA OVC054/// ///TCU 11/10 Q1012 BECMG BKN060

METARs OBSOLETI :
  • 191700Z AUTO VRB02KT 9999 BKN058 OVC068 11/10 Q1012 TEMPO RA
  • 191630Z AUTO VRB01KT 9999 FEW030 BKN066 OVC078 11/10 Q1012 TEMPO RA
  • 191600Z AUTO 00000KT 9999 -RA BKN064 OVC074 11/10 Q1012 TEMPO RA BECMG 27010KT
  • 191530Z AUTO VRB02KT 9999 -RA BKN035 OVC062 12/10 Q1011 TEMPO RA
  • 191500Z AUTO VRB03KT 9999 BKN039/// BKN048/// OVC064/// ///TCU 12/10 Q1011 TEMPO RA BECMG BKN060

TAF TAF LFMD
Valido dal 19 a 15 ore il 20 a 15 ore UTC


191400Z 1915/2015 27010KT 9999 BKN060
PROB40
TEMPO 1915/1918 RA
BECMG 1918/1920 VRB05KT
PROB40
TEMPO 2000/2009 RA
ATIS : +33 4 93 48 73 23



MetMap, La meteo Aeronautica in un colpo d'occhio ! - Copyright ORBIFLY Dicembre 2007 - Disclaimer

ORBIFLY MET'MAP TEAM :

Programmazione e sviluppo : Alexandra Zaïnal
Concezione e sviluppo : Baudouin d'Aumeries
Co-Programmazione e sviluppo : Marc-Olivier Méhu
Supporto tecnico e logistico : Manuel Goepfert
Aiuto per la traduzione : Arnaldo La Scala

Contatto : metmap@orbifly.com




FONTI E CREDITI :

   NOAA